createdAt,value
2022-11-27T00:29:09.699Z,-4.50
2022-11-27T00:31:39.133Z,-4.60
2022-11-27T00:34:09.285Z,-4.60
2022-11-27T00:41:42.718Z,-4.30
2022-11-27T00:49:08.159Z,-4.40
2022-11-27T00:54:03.985Z,-4.40
2022-11-27T00:56:34.365Z,-4.50
2022-11-27T00:59:05.544Z,-4.60
2022-11-27T01:01:37.269Z,-6.90
2022-11-27T01:04:11.163Z,-4.40
2022-11-27T01:09:07.857Z,-4.10
2022-11-27T01:11:36.927Z,-4.40
2022-11-27T01:14:08.368Z,-4.40
2022-11-27T01:19:12.348Z,-4.40
2022-11-27T01:21:41.082Z,-4.20
2022-11-27T01:31:34.839Z,-4.50
2022-11-27T01:34:06.723Z,-1.80
2022-11-27T01:36:35.469Z,-4.50
2022-11-27T01:39:03.149Z,-4.40
2022-11-27T01:41:37.581Z,-4.40
2022-11-27T01:44:45.706Z,-4.50
2022-11-27T01:47:18.792Z,-4.40
2022-11-27T01:49:52.424Z,-4.10
2022-11-27T01:52:24.909Z,-4.40
2022-11-27T01:55:00.451Z,-4.40
2022-11-27T01:57:39.107Z,-4.40
2022-11-27T02:00:09.121Z,-4.40
2022-11-27T02:07:33.219Z,-4.40
2022-11-27T02:12:41.442Z,-4.30
2022-11-27T02:15:28.210Z,-4.40
2022-11-27T02:18:11.567Z,-4.30
2022-11-27T02:20:58.426Z,-4.30
2022-11-27T02:23:53.500Z,-4.20
2022-11-27T02:26:45.084Z,-4.30
2022-11-27T02:29:17.311Z,-4.60
2022-11-27T02:31:57.888Z,-4.30
2022-11-27T02:34:36.125Z,-4.30
2022-11-27T02:37:26.516Z,-4.30
2022-11-27T02:40:15.176Z,-4.20
2022-11-27T02:42:49.522Z,-5.90
2022-11-27T02:45:32.078Z,-4.40
2022-11-27T02:48:00.158Z,-4.30
2022-11-27T02:50:30.043Z,-3.90
2022-11-27T02:53:02.242Z,-4.30
2022-11-27T02:55:34.286Z,-4.30
2022-11-27T02:58:06.362Z,-4.10
2022-11-27T03:00:35.663Z,-5.10
2022-11-27T03:03:08.763Z,-4.20
2022-11-27T03:05:42.064Z,-4.10
2022-11-27T03:08:30.434Z,-4.20
2022-11-27T03:11:04.920Z,-4.20
2022-11-27T03:13:38.691Z,-4.20
2022-11-27T03:16:15.753Z,-4.20
2022-11-27T03:19:03.287Z,-4.20
2022-11-27T03:21:42.651Z,-4.20
2022-11-27T03:24:11.773Z,-4.10
2022-11-27T03:26:40.578Z,-4.00
2022-11-27T03:29:14.151Z,-4.10
2022-11-27T03:31:42.056Z,-4.20
2022-11-27T03:34:10.194Z,-4.40
2022-11-27T03:41:51.029Z,-4.10
2022-11-27T03:44:48.700Z,-4.10
2022-11-27T03:47:47.222Z,-4.00
2022-11-27T03:50:34.868Z,-4.00
2022-11-27T03:53:15.407Z,-4.00
2022-11-27T03:56:06.778Z,-4.00
2022-11-27T03:58:47.089Z,-3.90
2022-11-27T04:01:18.023Z,-4.00
2022-11-27T04:03:45.629Z,-4.10
2022-11-27T04:16:09.651Z,-3.90
2022-11-27T04:28:30.238Z,-3.60
2022-11-27T04:30:58.605Z,-3.80
2022-11-27T05:13:07.642Z,-3.50
2022-11-27T05:32:55.950Z,-3.40
2022-11-27T05:47:44.583Z,-3.70
2022-11-27T06:00:06.127Z,-3.50
2022-11-27T06:07:32.268Z,-3.40
2022-11-27T06:12:32.394Z,-3.40
2022-11-27T06:14:59.920Z,-3.00
2022-11-27T06:17:27.926Z,-3.30
2022-11-27T06:44:40.673Z,-3.10
2022-11-27T06:47:08.781Z,-2.70
2022-11-27T07:06:55.722Z,-3.00
2022-11-27T07:19:21.968Z,-2.80
2022-11-27T07:39:33.757Z,-2.40
2022-11-27T08:02:15.969Z,-2.50
2022-11-27T08:19:34.291Z,-2.20
2022-11-27T08:34:35.052Z,-2.10
2022-11-27T08:37:05.332Z,-2.10
2022-11-27T08:56:53.135Z,-1.80
2022-11-27T09:04:24.583Z,-1.80
2022-11-27T09:32:14.359Z,-1.40
2022-11-27T09:35:11.352Z,-1.30
2022-11-27T09:43:10.190Z,-1.20
2022-11-27T09:45:49.061Z,-1.20
2022-11-27T09:48:46.518Z,-1.20
2022-11-27T09:51:41.796Z,-1.10
2022-11-27T09:54:17.718Z,-1.20
2022-11-27T09:56:49.765Z,-1.30
2022-11-27T09:59:20.042Z,-1.20
2022-11-27T10:02:13.912Z,-1.20
2022-11-27T10:08:06.420Z,-1.10
2022-11-27T10:12:00.332Z,-0.90
2022-11-27T10:15:12.291Z,-0.90
2022-11-27T10:17:52.339Z,-0.90
2022-11-27T10:20:44.984Z,-1.00
2022-11-27T10:23:27.635Z,-1.00
2022-11-27T10:26:02.647Z,-1.00
2022-11-27T10:28:44.956Z,-0.90
2022-11-27T10:31:18.976Z,-1.00
2022-11-27T10:33:53.926Z,-1.00
2022-11-27T10:36:43.206Z,-0.90
2022-11-27T10:39:21.389Z,-1.00
2022-11-27T10:41:59.895Z,-1.00
2022-11-27T10:44:32.672Z,-1.20
2022-11-27T10:47:04.969Z,-1.30
2022-11-27T10:49:34.439Z,-1.30
2022-11-27T10:52:02.198Z,-1.00
2022-11-27T10:54:36.304Z,-1.30
2022-11-27T10:57:40.606Z,-1.20
2022-11-27T11:00:24.223Z,-1.30
2022-11-27T11:03:05.459Z,-1.30
2022-11-27T11:06:18.520Z,-1.30
2022-11-27T11:11:02.173Z,-1.40
2022-11-27T11:13:35.426Z,-1.40
2022-11-27T11:16:24.189Z,-1.80
2022-11-27T11:18:57.326Z,-1.40
2022-11-27T11:21:32.988Z,-1.40
2022-11-27T11:24:09.549Z,-1.50
2022-11-27T11:26:46.530Z,-1.30
2022-11-27T11:29:35.571Z,-1.00
2022-11-27T11:32:13.213Z,-1.30
2022-11-27T11:34:56.272Z,-1.40
2022-11-27T11:37:30.322Z,-1.50
2022-11-27T11:40:02.388Z,-1.50
2022-11-27T11:42:34.329Z,-1.50
2022-11-27T11:45:06.590Z,-1.60
2022-11-27T11:47:34.664Z,-1.60
2022-11-27T11:52:50.120Z,-1.60
2022-11-27T11:55:27.132Z,-1.50
2022-11-27T11:58:19.570Z,0.80
2022-11-27T12:01:19.389Z,-1.50
2022-11-27T12:03:55.523Z,-1.70
2022-11-27T12:06:50.697Z,-1.80
2022-11-27T12:09:52.511Z,-2.10
2022-11-27T12:12:38.261Z,-2.20
2022-11-27T12:15:26.969Z,-2.30
2022-11-27T12:18:12.576Z,-2.30
2022-11-27T12:21:09.649Z,-2.20
2022-11-27T12:24:18.009Z,-2.20
2022-11-27T12:27:01.107Z,-2.20
2022-11-27T12:30:04.535Z,-2.30
2022-11-27T12:33:01.287Z,-2.40
2022-11-27T12:35:36.199Z,-1.60
2022-11-27T12:38:34.213Z,-2.40
2022-11-27T12:41:29.838Z,-2.40
2022-11-27T12:44:07.499Z,-2.30
2022-11-27T12:46:51.830Z,-2.60
2022-11-27T12:49:28.733Z,-2.40
2022-11-27T12:52:16.875Z,-2.40
2022-11-27T12:54:57.098Z,-2.40
2022-11-27T12:57:42.100Z,-2.70
2022-11-27T13:00:18.278Z,-2.50
2022-11-27T13:03:19.769Z,-2.60
2022-11-27T13:05:54.492Z,-2.40
2022-11-27T13:08:34.605Z,-2.40
2022-11-27T13:11:13.564Z,-2.40
2022-11-27T13:13:48.669Z,-2.50
2022-11-27T13:16:25.438Z,-2.40
2022-11-27T13:19:10.862Z,-2.30
2022-11-27T13:21:41.638Z,-2.30
2022-11-27T13:24:15.672Z,-2.50
2022-11-27T13:26:54.673Z,-2.30
2022-11-27T13:29:44.877Z,-2.40
2022-11-27T13:32:24.278Z,-2.00
2022-11-27T13:34:53.936Z,-2.10
2022-11-27T13:37:42.637Z,-2.20
2022-11-27T13:40:33.657Z,-2.40
2022-11-27T13:43:25.465Z,-2.30
2022-11-27T13:46:26.671Z,-2.30
2022-11-27T13:49:00.966Z,-2.00
2022-11-27T13:51:37.227Z,-2.40
2022-11-27T13:54:25.920Z,-2.40
2022-11-27T13:57:11.540Z,-2.40
2022-11-27T14:02:08.604Z,-2.40
2022-11-27T14:07:12.892Z,-2.30
2022-11-27T14:09:56.774Z,-2.40
2022-11-27T14:12:30.129Z,-2.30
2022-11-27T14:15:08.732Z,-2.30
2022-11-27T14:17:41.810Z,-2.40
2022-11-27T14:20:31.759Z,-2.30
2022-11-27T14:23:11.854Z,-2.30
2022-11-27T14:28:19.105Z,-2.40
2022-11-27T14:30:52.486Z,-2.40
2022-11-27T14:33:27.574Z,-2.40
2022-11-27T14:36:01.223Z,-2.40
2022-11-27T14:38:34.191Z,-2.30
2022-11-27T14:41:24.204Z,-2.40
2022-11-27T14:44:17.485Z,-2.40
2022-11-27T14:46:45.321Z,-2.70
2022-11-27T14:49:22.870Z,-2.50
2022-11-27T14:51:53.090Z,-2.40
2022-11-27T14:54:31.573Z,-2.30
2022-11-27T14:57:02.896Z,-2.90
2022-11-27T15:02:06.305Z,-2.40
2022-11-27T15:04:38.734Z,-2.30
2022-11-27T15:07:27.485Z,-2.00
2022-11-27T15:09:57.623Z,-2.30
2022-11-27T15:12:34.875Z,-2.30
2022-11-27T15:15:19.001Z,-2.50
2022-11-27T15:17:52.814Z,-2.40
2022-11-27T15:20:42.144Z,-2.40
2022-11-27T15:23:25.209Z,-2.40
2022-11-27T15:26:16.043Z,-2.50
2022-11-27T15:28:54.848Z,-2.50
2022-11-27T15:31:38.984Z,-2.50
2022-11-27T15:34:22.843Z,-2.30
2022-11-27T15:37:02.823Z,-2.50
2022-11-27T15:39:50.381Z,-2.50
2022-11-27T15:42:21.738Z,-2.40
2022-11-27T15:44:53.471Z,-2.40
2022-11-27T15:47:31.841Z,-2.40
2022-11-27T15:50:00.696Z,-2.50
2022-11-27T15:52:33.957Z,-2.40
2022-11-27T15:55:05.461Z,-2.70
2022-11-27T16:00:10.283Z,-2.70
2022-11-27T16:02:45.259Z,-2.80
2022-11-27T16:18:07.725Z,-2.50
2022-11-27T16:20:40.888Z,-2.40
2022-11-27T16:25:43.733Z,-2.40
2022-11-27T16:30:40.405Z,-2.20
2022-11-27T16:35:40.632Z,-0.70
2022-11-27T16:40:48.986Z,-2.40
2022-11-27T16:48:22.855Z,-2.40
2022-11-27T16:53:33.971Z,-2.40
2022-11-27T17:01:09.039Z,-2.40
2022-11-27T17:03:43.340Z,-2.40
2022-11-27T17:06:20.096Z,-2.40
2022-11-27T17:11:21.781Z,-2.40
2022-11-27T17:14:06.516Z,-2.50
2022-11-27T17:19:06.288Z,-2.40
2022-11-27T17:21:39.864Z,-2.40
2022-11-27T17:24:15.010Z,-2.40
2022-11-27T17:26:44.645Z,-2.50
2022-11-27T17:29:24.364Z,-2.80
2022-11-27T17:32:06.465Z,-2.50
2022-11-27T17:42:14.612Z,-2.40
2022-11-27T17:52:41.815Z,-2.80
2022-11-27T17:57:44.863Z,-2.50
2022-11-27T18:00:20.819Z,-2.50
2022-11-27T18:08:01.147Z,-2.60
2022-11-27T18:10:34.054Z,-2.60
2022-11-27T18:13:07.555Z,-2.60
2022-11-27T18:15:41.671Z,-2.50
2022-11-27T18:30:36.274Z,-2.70
2022-11-27T18:35:42.886Z,-2.80
2022-11-27T18:50:36.908Z,-2.80
2022-11-27T18:55:37.712Z,-2.90
2022-11-27T19:05:48.272Z,-2.80
2022-11-27T19:21:00.557Z,-2.90
2022-11-27T19:26:08.141Z,-2.90
2022-11-27T19:28:45.847Z,-2.90
2022-11-27T19:31:21.589Z,-2.90
2022-11-27T19:33:58.141Z,-2.90
2022-11-27T19:39:15.029Z,-2.90
2022-11-27T19:42:01.914Z,-2.90
2022-11-27T19:47:04.639Z,-2.90
2022-11-27T19:52:32.011Z,-2.80
2022-11-27T20:00:11.730Z,-3.00
2022-11-27T20:15:58.010Z,-2.80
2022-11-27T20:18:41.572Z,-2.80
2022-11-27T20:21:16.272Z,-2.90
2022-11-27T20:23:50.744Z,-3.00
2022-11-27T20:26:23.679Z,-1.00
2022-11-27T20:28:53.580Z,-2.90
2022-11-27T20:31:27.679Z,-2.80
2022-11-27T20:34:03.537Z,-3.00
2022-11-27T20:36:41.288Z,-2.90
2022-11-27T20:44:20.034Z,-2.90
2022-11-27T20:51:51.861Z,-2.80
2022-11-27T20:54:26.140Z,-2.80
2022-11-27T21:04:28.980Z,-2.80
2022-11-27T21:06:58.674Z,-2.90
2022-11-27T21:22:03.635Z,-2.70
2022-11-27T21:32:03.604Z,-2.50
2022-11-27T21:42:08.121Z,-2.60
2022-11-27T22:09:36.947Z,-2.50
2022-11-27T22:31:53.540Z,-2.60
2022-11-27T22:44:22.845Z,-2.70
2022-11-27T22:49:19.168Z,-2.60
2022-11-27T22:54:17.513Z,-2.10
2022-11-27T23:04:30.670Z,-2.60
2022-11-27T23:34:19.460Z,-2.60
2022-11-27T23:36:50.026Z,-2.60
2022-11-27T23:51:38.980Z,-2.50
2022-11-27T23:54:12.065Z,-2.60
